Terminal Aerodrome Forecast
Issued by NWS

Current Version | Previous Version | Text Only | Print | Product List | Glossary Off
Versions: 1 2 3 4 5 6 7 8 9 10 11 12 13 14 15 16 17 18 19 20 21

000
FTUS44 KSJT 301100
TAFSOA
TAF
KSOA 301120Z 3012/3112 08008KT P6SM SCT025 BKN050
     FM301900 07008KT P6SM VCSH OVC040
     FM310000 07007KT P6SM SCT100=

USA.gov is the U.S. government's official web portal to all federal, state and local government web resources and services.